Time,TemperatureF,DewpointF,PressureIn,WindDirection,WindDirectionDegrees,WindSpeedMPH,WindSpeedGustMPH,Humidity,HourlyPrecipIn,Conditions,Clouds,dailyrainin,SoftwareType,DateUTC
2013-04-22 00:01:00,28.9,15.2,30.66,SW,225,0.0,0.0,56,0.00,,,0.00,WUHU21623XXSP,2013-04-22 04:01:00,
2013-04-22 00:06:00,28.9,15.6,30.66,SW,225,0.0,0.0,57,0.00,,,0.00,WUHU21623XXSP,2013-04-22 04:06:00,
2013-04-22 00:11:00,28.8,15.5,30.67,SW,225,0.0,0.0,57,0.00,,,0.00,WUHU21623XXSP,2013-04-22 04:11:00,
2013-04-22 00:16:00,28.6,15.3,30.67,SW,225,0.0,0.0,57,0.00,,,0.00,WUHU21623XXSP,2013-04-22 04:16:00,
2013-04-22 00:21:00,28.8,15.5,30.67,SW,225,0.0,0.0,57,0.00,,,0.00,WUHU21623XXSP,2013-04-22 04:21:00,
2013-04-22 00:26:00,28.6,15.3,30.67,SW,225,0.0,0.0,57,0.00,,,0.00,WUHU21623XXSP,2013-04-22 04:26:00,
2013-04-22 00:31:00,28.6,15.7,30.67,SW,225,0.0,0.0,58,0.00,,,0.00,WUHU21623XXSP,2013-04-22 04:31:00,
2013-04-22 00:36:00,28.6,15.7,30.66,SW,225,0.0,0.0,58,0.00,,,0.00,WUHU21623XXSP,2013-04-22 04:36:00,
2013-04-22 00:41:00,28.2,15.3,30.66,SW,225,0.0,0.0,58,0.00,,,0.00,WUHU21623XXSP,2013-04-22 04:41:00,
2013-04-22 00:46:00,28.0,15.1,30.66,SW,225,0.0,0.0,58,0.00,,,0.00,WUHU21623XXSP,2013-04-22 04:46:00,
2013-04-22 00:51:00,28.0,15.1,30.66,SW,225,0.0,0.0,58,0.00,,,0.00,WUHU21623XXSP,2013-04-22 04:51:00,
2013-04-22 00:56:00,27.9,15.5,30.67,SW,225,0.0,0.0,59,0.00,,,0.00,WUHU21623XXSP,2013-04-22 04:56:00,
2013-04-22 01:01:00,27.9,15.5,30.67,SW,225,0.0,0.0,59,0.00,,,0.00,WUHU21623XXSP,2013-04-22 05:01:00,
2013-04-22 01:06:00,27.9,15.5,30.67,SW,225,0.0,0.0,59,0.00,,,0.00,WUHU21623XXSP,2013-04-22 05:06:00,
2013-04-22 01:11:00,27.9,15.5,30.67,SW,225,0.0,0.0,59,0.00,,,0.00,WUHU21623XXSP,2013-04-22 05:11:00,
2013-04-22 01:16:00,27.7,15.3,30.67,SW,225,0.0,0.0,59,0.00,,,0.00,WUHU21623XXSP,2013-04-22 05:16:00,
2013-04-22 01:21:00,27.5,15.1,30.68,SW,225,0.0,0.0,59,0.00,,,0.00,WUHU21623XXSP,2013-04-22 05:21:00,
2013-04-22 01:26:00,27.5,15.1,30.67,SW,225,0.0,0.0,59,0.00,,,0.00,WUHU21623XXSP,2013-04-22 05:26:00,
2013-04-22 01:31:00,27.3,14.9,30.67,SW,225,0.0,0.0,59,0.00,,,0.00,WUHU21623XXSP,2013-04-22 05:31:00,
2013-04-22 01:36:00,27.3,14.9,30.67,SW,225,0.0,0.0,59,0.00,,,0.00,WUHU21623XXSP,2013-04-22 05:36:00,
2013-04-22 01:41:00,27.1,15.1,30.67,SW,225,0.0,0.0,60,0.00,,,0.00,WUHU21623XXSP,2013-04-22 05:41:00,
2013-04-22 01:46:00,27.1,15.1,30.68,SW,225,0.0,0.0,60,0.00,,,0.00,WUHU21623XXSP,2013-04-22 05:46:00,
2013-04-22 01:51:00,27.0,15.0,30.68,SW,225,0.0,0.0,60,0.00,,,0.00,WUHU21623XXSP,2013-04-22 05:51:00,
2013-04-22 01:56:00,27.0,15.0,30.68,SW,225,0.0,0.0,60,0.00,,,0.00,WUHU21623XXSP,2013-04-22 05:56:00,
2013-04-22 02:01:00,26.8,14.8,30.68,SW,225,0.0,0.0,60,0.00,,,0.00,WUHU21623XXSP,2013-04-22 06:01:00,
2013-04-22 02:06:00,26.8,14.8,30.68,SW,225,0.0,0.0,60,0.00,,,0.00,WUHU21623XXSP,2013-04-22 06:06:00,
2013-04-22 02:11:00,26.8,15.2,30.68,SW,225,0.0,0.0,61,0.00,,,0.00,WUHU21623XXSP,2013-04-22 06:11:00,
2013-04-22 02:16:00,26.6,15.0,30.68,SW,225,0.0,0.0,61,0.00,,,0.00,WUHU21623XXSP,2013-04-22 06:16:00,
2013-04-22 02:21:00,26.4,14.8,30.68,SW,225,0.0,0.0,61,0.00,,,0.00,WUHU21623XXSP,2013-04-22 06:21:00,
2013-04-22 02:26:00,26.4,14.8,30.68,SW,225,0.0,0.0,61,0.00,,,0.00,WUHU21623XXSP,2013-04-22 06:26:00,
2013-04-22 02:31:00,26.2,14.6,30.68,SW,225,0.0,0.0,61,0.00,,,0.00,WUHU21623XXSP,2013-04-22 06:31:00,
2013-04-22 02:36:00,26.1,14.5,30.68,SW,225,0.0,0.0,61,0.00,,,0.00,WUHU21623XXSP,2013-04-22 06:36:00,
2013-04-22 02:41:00,26.1,14.5,30.68,SW,225,0.0,0.0,61,0.00,,,0.00,WUHU21623XXSP,2013-04-22 06:41:00,
2013-04-22 02:46:00,26.1,14.9,30.68,SW,225,0.0,0.0,62,0.00,,,0.00,WUHU21623XXSP,2013-04-22 06:46:00,
2013-04-22 02:51:00,25.9,14.7,30.68,SW,225,0.0,0.0,62,0.00,,,0.00,WUHU21623XXSP,2013-04-22 06:51:00,
2013-04-22 02:56:00,25.9,14.7,30.68,SW,225,0.0,0.0,62,0.00,,,0.00,WUHU21623XXSP,2013-04-22 06:56:00,
2013-04-22 03:01:00,25.9,14.7,30.69,SW,225,0.0,0.0,62,0.00,,,0.00,WUHU21623XXSP,2013-04-22 07:01:00,
2013-04-22 03:06:00,25.9,14.7,30.69,SW,225,0.0,0.0,62,0.00,,,0.00,WUHU21623XXSP,2013-04-22 07:06:00,
2013-04-22 03:11:00,26.1,14.9,30.69,SW,225,0.0,0.0,62,0.00,,,0.00,WUHU21623XXSP,2013-04-22 07:11:00,
2013-04-22 03:16:00,25.9,14.7,30.69,SW,225,0.0,0.0,62,0.00,,,0.00,WUHU21623XXSP,2013-04-22 07:16:00,
2013-04-22 03:21:00,25.9,14.7,30.69,SW,225,0.0,0.0,62,0.00,,,0.00,WUHU21623XXSP,2013-04-22 07:21:00,
2013-04-22 03:26:00,25.7,14.5,30.69,SW,225,0.0,0.0,62,0.00,,,0.00,WUHU21623XXSP,2013-04-22 07:26:00,
2013-04-22 03:31:00,25.7,14.9,30.69,SW,225,0.0,0.0,63,0.00,,,0.00,WUHU21623XXSP,2013-04-22 07:31:00,
2013-04-22 03:36:00,25.7,14.9,30.69,SW,225,0.0,0.0,63,0.00,,,0.00,WUHU21623XXSP,2013-04-22 07:36:00,
2013-04-22 03:41:00,25.7,14.9,30.69,SW,225,0.0,0.0,63,0.00,,,0.00,WUHU21623XXSP,2013-04-22 07:41:00,
2013-04-22 03:46:00,25.5,14.7,30.69,SW,225,0.0,0.0,63,0.00,,,0.00,WUHU21623XXSP,2013-04-22 07:46:00,
2013-04-22 03:51:00,25.7,15.3,30.69,SW,225,0.0,0.0,64,0.00,,,0.00,WUHU21623XXSP,2013-04-22 07:51:00,
2013-04-22 03:56:00,25.5,15.1,30.69,SW,225,0.0,0.0,64,0.00,,,0.00,WUHU21623XXSP,2013-04-22 07:56:00,
2013-04-22 04:01:00,25.5,15.1,30.69,SW,225,0.0,0.0,64,0.00,,,0.00,WUHU21623XXSP,2013-04-22 08:01:00,
2013-04-22 04:06:00,25.5,15.1,30.69,SW,225,0.0,0.0,64,0.00,,,0.00,WUHU21623XXSP,2013-04-22 08:06:00,
2013-04-22 04:11:00,25.5,15.1,30.69,SW,225,0.0,0.0,64,0.00,,,0.00,WUHU21623XXSP,2013-04-22 08:11:00,
2013-04-22 04:16:00,25.3,14.9,30.69,SW,225,0.0,0.0,64,0.00,,,0.00,WUHU21623XXSP,2013-04-22 08:16:00,
2013-04-22 04:21:00,25.5,15.1,30.69,SW,225,0.0,0.0,64,0.00,,,0.00,WUHU21623XXSP,2013-04-22 08:21:00,
2013-04-22 04:26:00,25.3,15.2,30.69,SW,225,0.0,0.0,65,0.00,,,0.00,WUHU21623XXSP,2013-04-22 08:26:00,
2013-04-22 04:31:00,25.5,15.4,30.69,SW,225,0.0,0.0,65,0.00,,,0.00,WUHU21623XXSP,2013-04-22 08:31:00,
2013-04-22 04:36:00,25.5,15.4,30.69,SW,225,0.0,0.0,65,0.00,,,0.00,WUHU21623XXSP,2013-04-22 08:36:00,
2013-04-22 04:41:00,25.2,15.1,30.69,SW,225,0.0,0.0,65,0.00,,,0.00,WUHU21623XXSP,2013-04-22 08:41:00,
2013-04-22 04:46:00,25.2,15.1,30.70,SW,225,0.0,0.0,65,0.00,,,0.00,WUHU21623XXSP,2013-04-22 08:46:00,
2013-04-22 04:51:00,25.2,15.1,30.70,SW,225,0.0,0.0,65,0.00,,,0.00,WUHU21623XXSP,2013-04-22 08:51:00,
2013-04-22 04:56:00,25.0,14.9,30.70,SW,225,0.0,0.0,65,0.00,,,0.00,WUHU21623XXSP,2013-04-22 08:56:00,
2013-04-22 05:01:00,25.0,14.9,30.70,SW,225,0.0,0.0,65,0.00,,,0.00,WUHU21623XXSP,2013-04-22 09:01:00,
2013-04-22 05:06:00,24.6,14.6,30.70,SW,225,0.0,0.0,65,0.00,,,0.00,WUHU21623XXSP,2013-04-22 09:06:00,
2013-04-22 05:11:00,24.6,14.6,30.71,SW,225,0.0,0.0,65,0.00,,,0.00,WUHU21623XXSP,2013-04-22 09:11:00,
2013-04-22 05:16:00,24.4,14.4,30.71,SW,225,0.0,0.0,65,0.00,,,0.00,WUHU21623XXSP,2013-04-22 09:16:00,
2013-04-22 05:21:00,24.4,14.4,30.71,SW,225,0.0,0.0,65,0.00,,,0.00,WUHU21623XXSP,2013-04-22 09:21:00,
2013-04-22 05:26:00,24.3,14.3,30.71,SW,225,0.0,0.0,65,0.00,,,0.00,WUHU21623XXSP,2013-04-22 09:26:00,
2013-04-22 05:31:00,24.3,14.6,30.71,SW,225,0.0,0.0,66,0.00,,,0.00,WUHU21623XXSP,2013-04-22 09:31:00,
2013-04-22 05:36:00,24.3,14.6,30.71,SW,225,0.0,0.0,66,0.00,,,0.00,WUHU21623XXSP,2013-04-22 09:36:00,
2013-04-22 05:41:00,24.3,14.6,30.71,SW,225,0.0,0.0,66,0.00,,,0.00,WUHU21623XXSP,2013-04-22 09:41:00,
2013-04-22 05:46:00,24.1,14.4,30.71,SW,225,0.0,0.0,66,0.00,,,0.00,WUHU21623XXSP,2013-04-22 09:46:00,
2013-04-22 05:51:00,24.1,14.4,30.72,SW,225,0.0,0.0,66,0.00,,,0.00,WUHU21623XXSP,2013-04-22 09:51:00,
2013-04-22 05:56:00,23.9,14.2,30.72,SW,225,0.0,0.0,66,0.00,,,0.00,WUHU21623XXSP,2013-04-22 09:56:00,
2013-04-22 06:01:00,23.9,14.2,30.72,SW,225,0.0,0.0,66,0.00,,,0.00,WUHU21623XXSP,2013-04-22 10:01:00,
2013-04-22 06:06:00,23.9,14.2,30.72,SW,225,0.0,0.0,66,0.00,,,0.00,WUHU21623XXSP,2013-04-22 10:06:00,
2013-04-22 06:11:00,23.9,14.2,30.72,SW,225,0.0,0.0,66,0.00,,,0.00,WUHU21623XXSP,2013-04-22 10:11:00,
2013-04-22 06:16:00,24.1,14.8,30.72,SW,225,0.0,0.0,67,0.00,,,0.00,WUHU21623XXSP,2013-04-22 10:16:00,
2013-04-22 06:21:00,24.1,14.8,30.72,SW,225,0.0,0.0,67,0.00,,,0.00,WUHU21623XXSP,2013-04-22 10:21:00,
2013-04-22 06:26:00,24.3,15.0,30.72,SW,225,0.0,0.0,67,0.00,,,0.00,WUHU21623XXSP,2013-04-22 10:26:00,
2013-04-22 06:31:00,24.4,15.1,30.72,SW,225,0.0,0.0,67,0.00,,,0.00,WUHU21623XXSP,2013-04-22 10:31:00,
2013-04-22 06:36:00,24.4,15.1,30.72,SW,225,0.0,0.0,67,0.00,,,0.00,WUHU21623XXSP,2013-04-22 10:36:00,
2013-04-22 06:41:00,24.6,15.6,30.72,SW,225,0.0,0.0,68,0.00,,,0.00,WUHU21623XXSP,2013-04-22 10:41:00,
2013-04-22 06:46:00,24.8,15.8,30.72,SW,225,0.0,0.0,68,0.00,,,0.00,WUHU21623XXSP,2013-04-22 10:46:00,
2013-04-22 06:51:00,25.0,16.0,30.73,SW,225,0.0,0.0,68,0.00,,,0.00,WUHU21623XXSP,2013-04-22 10:51:00,
2013-04-22 06:56:00,25.2,16.2,30.73,SW,225,0.0,0.0,68,0.00,,,0.00,WUHU21623XXSP,2013-04-22 10:56:00,
2013-04-22 07:01:00,25.5,16.5,30.73,SW,225,0.0,0.0,68,0.00,,,0.00,WUHU21623XXSP,2013-04-22 11:01:00,
2013-04-22 07:06:00,25.7,17.0,30.73,SW,225,0.0,0.0,69,0.00,,,0.00,WUHU21623XXSP,2013-04-22 11:06:00,
2013-04-22 07:11:00,25.9,17.2,30.73,SW,225,0.0,0.0,69,0.00,,,0.00,WUHU21623XXSP,2013-04-22 11:11:00,
2013-04-22 07:16:00,26.2,17.5,30.73,SW,225,0.0,0.0,69,0.00,,,0.00,WUHU21623XXSP,2013-04-22 11:16:00,
2013-04-22 07:21:00,26.6,17.9,30.74,SW,225,0.0,0.0,69,0.00,,,0.00,WUHU21623XXSP,2013-04-22 11:21:00,
2013-04-22 07:26:00,27.0,18.2,30.73,SW,225,0.0,0.0,69,0.00,,,0.00,WUHU21623XXSP,2013-04-22 11:26:00,
2013-04-22 07:31:00,27.1,18.3,30.73,SW,225,0.0,0.0,69,0.00,,,0.00,WUHU21623XXSP,2013-04-22 11:31:00,
2013-04-22 07:36:00,27.5,18.7,30.74,SW,225,0.0,0.0,69,0.00,,,0.00,WUHU21623XXSP,2013-04-22 11:36:00,
2013-04-22 07:41:00,28.0,19.5,30.74,SW,225,0.0,0.0,70,0.00,,,0.00,WUHU21623XXSP,2013-04-22 11:41:00,
2013-04-22 07:46:00,28.4,19.9,30.74,SW,225,0.0,0.0,70,0.00,,,0.00,WUHU21623XXSP,2013-04-22 11:46:00,
2013-04-22 07:51:00,28.8,20.3,30.73,SW,225,0.0,0.0,70,0.00,,,0.00,WUHU21623XXSP,2013-04-22 11:51:00,
2013-04-22 07:56:00,29.3,20.4,30.73,SW,225,0.0,0.0,69,0.00,,,0.00,WUHU21623XXSP,2013-04-22 11:56:00,
2013-04-22 08:01:00,29.7,20.8,30.73,SW,225,0.0,0.0,69,0.00,,,0.00,WUHU21623XXSP,2013-04-22 12:01:00,
2013-04-22 08:06:00,30.0,21.1,30.73,SW,225,0.0,0.0,69,0.00,,,0.00,WUHU21623XXSP,2013-04-22 12:06:00,
2013-04-22 08:11:00,30.6,21.7,30.73,SW,225,0.0,0.0,69,0.00,,,0.00,WUHU21623XXSP,2013-04-22 12:11:00,
2013-04-22 08:16:00,31.3,22.4,30.74,SW,225,0.0,0.0,69,0.00,,,0.00,WUHU21623XXSP,2013-04-22 12:16:00,
2013-04-22 08:21:00,32.0,22.7,30.73,SW,225,0.0,0.0,68,0.00,,,0.00,WUHU21623XXSP,2013-04-22 12:21:00,
2013-04-22 08:26:00,32.4,23.1,30.73,SW,225,0.0,0.0,68,0.00,,,0.00,WUHU21623XXSP,2013-04-22 12:26:00,
2013-04-22 08:31:00,32.7,23.4,30.73,SW,225,0.0,1.8,68,0.00,,,0.00,WUHU21623XXSP,2013-04-22 12:31:00,
2013-04-22 08:36:00,33.4,24.0,30.73,SW,225,0.0,1.8,68,0.00,,,0.00,WUHU21623XXSP,2013-04-22 12:36:00,
2013-04-22 08:41:00,34.2,24.5,30.73,SSW,202,0.0,2.5,67,0.00,,,0.00,WUHU21623XXSP,2013-04-22 12:41:00,
2013-04-22 08:46:00,35.2,25.0,30.73,SSE,157,0.0,5.2,66,0.00,,,0.00,WUHU21623XXSP,2013-04-22 12:46:00,
2013-04-22 08:51:00,36.0,25.1,30.73,NE,45,1.3,8.4,64,0.00,,,0.00,WUHU21623XXSP,2013-04-22 12:51:00,
2013-04-22 08:56:00,36.7,25.0,30.73,ESE,112,4.0,10.7,62,0.00,,,0.00,WUHU21623XXSP,2013-04-22 12:56:00,
2013-04-22 09:01:00,37.4,24.8,30.72,NE,45,0.0,10.7,60,0.00,,,0.00,WUHU21623XXSP,2013-04-22 13:01:00,
2013-04-22 09:06:00,37.9,24.5,30.72,SW,225,6.2,9.2,58,0.00,,,0.00,WUHU21623XXSP,2013-04-22 13:06:00,
2013-04-22 09:11:00,38.5,24.2,30.72,ESE,112,2.8,9.2,56,0.00,,,0.00,WUHU21623XXSP,2013-04-22 13:11:00,
2013-04-22 09:16:00,39.2,23.9,30.72,West,270,1.8,8.1,54,0.00,,,0.00,WUHU21623XXSP,2013-04-22 13:16:00,
2013-04-22 09:21:00,39.9,24.1,30.72,NW,315,1.3,9.8,53,0.00,,,0.00,WUHU21623XXSP,2013-04-22 13:21:00,
2013-04-22 09:26:00,40.3,24.0,30.72,ESE,112,3.4,9.8,52,0.00,,,0.00,WUHU21623XXSP,2013-04-22 13:26:00,
2013-04-22 09:31:00,40.8,24.0,30.72,WSW,247,3.4,6.4,51,0.00,,,0.00,WUHU21623XXSP,2013-04-22 13:31:00,
2013-04-22 09:36:00,41.4,23.6,30.72,West,270,3.0,6.4,49,0.00,,,0.00,WUHU21623XXSP,2013-04-22 13:36:00,
2013-04-22 09:41:00,41.9,23.0,30.73,WSW,247,8.0,8.7,47,0.00,,,0.00,WUHU21623XXSP,2013-04-22 13:41:00,
2013-04-22 09:46:00,42.4,23.0,30.72,SW,225,7.5,10.1,46,0.00,,,0.00,WUHU21623XXSP,2013-04-22 13:46:00,
2013-04-22 09:51:00,43.0,23.5,30.72,NE,45,3.1,10.1,46,0.00,,,0.00,WUHU21623XXSP,2013-04-22 13:51:00,
2013-04-22 09:56:00,43.5,23.4,30.72,SE,135,0.0,9.0,45,0.00,,,0.00,WUHU21623XXSP,2013-04-22 13:56:00,
2013-04-22 10:01:00,44.2,24.1,30.72,ESE,112,1.7,9.9,45,0.00,,,0.00,WUHU21623XXSP,2013-04-22 14:01:00,
2013-04-22 10:06:00,44.8,23.5,30.72,NE,45,0.0,10.4,43,0.00,,,0.00,WUHU21623XXSP,2013-04-22 14:06:00,
2013-04-22 10:11:00,45.0,23.1,30.72,NE,45,6.6,11.3,42,0.00,,,0.00,WUHU21623XXSP,2013-04-22 14:11:00,
2013-04-22 10:16:00,45.7,22.6,30.72,ENE,67,3.9,11.3,40,0.00,,,0.00,WUHU21623XXSP,2013-04-22 14:16:00,
2013-04-22 10:21:00,45.9,22.1,30.72,West,270,0.3,11.4,39,0.00,,,0.00,WUHU21623XXSP,2013-04-22 14:21:00,
2013-04-22 10:26:00,46.0,22.2,30.72,NNE,22,1.2,11.4,39,0.00,,,0.00,WUHU21623XXSP,2013-04-22 14:26:00,
2013-04-22 10:31:00,46.9,22.4,30.72,NE,45,6.0,10.6,38,0.00,,,0.00,WUHU21623XXSP,2013-04-22 14:31:00,
2013-04-22 10:36:00,47.3,22.1,30.72,NE,45,0.0,12.6,37,0.00,,,0.00,WUHU21623XXSP,2013-04-22 14:36:00,
2013-04-22 10:41:00,47.8,21.9,30.72,WNW,292,4.3,12.6,36,0.00,,,0.00,WUHU21623XXSP,2013-04-22 14:41:00,
2013-04-22 10:46:00,48.0,22.1,30.72,NNE,22,4.8,11.6,36,0.00,,,0.00,WUHU21623XXSP,2013-04-22 14:46:00,
2013-04-22 10:51:00,48.6,22.6,30.72,NE,45,1.8,11.6,36,0.00,,,0.00,WUHU21623XXSP,2013-04-22 14:51:00,
2013-04-22 10:56:00,48.9,21.5,30.72,WSW,247,4.7,13.3,34,0.00,,,0.00,WUHU21623XXSP,2013-04-22 14:56:00,
2013-04-22 11:01:00,49.8,23.0,30.72,ENE,67,5.6,13.3,35,0.00,,,0.00,WUHU21623XXSP,2013-04-22 15:01:00,
2013-04-22 11:07:00,49.6,21.4,30.72,NE,45,0.0,12.9,33,0.00,,,0.00,WUHU21623XXSP,2013-04-22 15:07:00,
2013-04-22 11:12:00,49.3,20.4,30.72,ENE,67,4.2,13.7,32,0.00,,,0.00,WUHU21623XXSP,2013-04-22 15:12:00,
2013-04-22 11:17:00,50.2,22.0,30.72,NE,45,3.7,13.7,33,0.00,,,0.00,WUHU21623XXSP,2013-04-22 15:17:00,
2013-04-22 11:22:00,50.7,23.8,30.72,NNE,22,4.5,11.6,35,0.00,,,0.00,WUHU21623XXSP,2013-04-22 15:22:00,
2013-04-22 11:27:00,50.4,22.1,30.72,NNW,337,0.0,9.3,33,0.00,,,0.00,WUHU21623XXSP,2013-04-22 15:27:00,
2013-04-22 11:32:00,50.0,21.0,30.72,ENE,67,7.1,14.0,32,0.00,,,0.00,WUHU21623XXSP,2013-04-22 15:32:00,
2013-04-22 11:37:00,50.2,20.5,30.71,NE,45,5.3,14.5,31,0.00,,,0.00,WUHU21623XXSP,2013-04-22 15:37:00,
2013-04-22 11:42:00,50.5,21.5,30.71,NE,45,4.1,14.5,32,0.00,,,0.00,WUHU21623XXSP,2013-04-22 15:42:00,
2013-04-22 11:47:00,51.3,21.4,30.71,NE,45,9.7,16.2,31,0.00,,,0.00,WUHU21623XXSP,2013-04-22 15:47:00,
2013-04-22 11:52:00,52.0,22.1,30.70,NW,315,2.2,16.2,31,0.00,,,0.00,WUHU21623XXSP,2013-04-22 15:52:00,
2013-04-22 11:57:00,52.2,22.2,30.70,WNW,292,4.3,13.9,31,0.00,,,0.00,WUHU21623XXSP,2013-04-22 15:57:00,
2013-04-22 12:02:00,52.7,23.4,30.70,NE,45,8.0,13.0,32,0.00,,,0.00,WUHU21623XXSP,2013-04-22 16:02:00,
2013-04-22 12:07:00,53.1,22.2,30.69,NE,45,1.5,13.0,30,0.00,,,0.00,WUHU21623XXSP,2013-04-22 16:07:00,
2013-04-22 12:12:00,53.4,22.5,30.69,NE,45,4.2,12.6,30,0.00,,,0.00,WUHU21623XXSP,2013-04-22 16:12:00,
2013-04-22 12:17:00,53.8,22.1,30.69,NE,45,3.8,11.1,29,0.00,,,0.00,WUHU21623XXSP,2013-04-22 16:17:00,
2013-04-22 12:22:00,54.0,23.0,30.68,SW,225,6.6,13.4,30,0.00,,,0.00,WUHU21623XXSP,2013-04-22 16:22:00,
2013-04-22 12:27:00,53.8,21.2,30.67,NNW,337,0.0,14.8,28,0.00,,,0.00,WUHU21623XXSP,2013-04-22 16:27:00,
2013-04-22 12:32:00,54.1,22.3,30.67,NW,315,4.3,14.8,29,0.00,,,0.00,WUHU21623XXSP,2013-04-22 16:32:00,
2013-04-22 12:37:00,54.3,22.5,30.67,ENE,67,2.9,13.3,29,0.00,,,0.00,WUHU21623XXSP,2013-04-22 16:37:00,
2013-04-22 12:42:00,54.1,22.3,30.66,SE,135,7.0,13.4,29,0.00,,,0.00,WUHU21623XXSP,2013-04-22 16:42:00,
2013-04-22 12:47:00,54.0,20.6,30.66,ENE,67,0.8,13.4,27,0.00,,,0.00,WUHU21623XXSP,2013-04-22 16:47:00,
2013-04-22 12:52:00,54.0,21.4,30.66,WSW,247,5.9,14.3,28,0.00,,,0.00,WUHU21623XXSP,2013-04-22 16:52:00,
2013-04-22 12:57:00,54.5,22.7,30.65,ENE,67,3.5,14.3,29,0.00,,,0.00,WUHU21623XXSP,2013-04-22 16:57:00,
2013-04-22 13:02:00,54.7,22.8,30.65,ENE,67,1.6,10.1,29,0.00,,,0.00,WUHU21623XXSP,2013-04-22 17:02:00,
2013-04-22 13:07:00,55.0,23.1,30.65,NE,45,3.4,11.9,29,0.00,,,0.00,WUHU21623XXSP,2013-04-22 17:07:00,
2013-04-22 13:12:00,55.0,21.4,30.65,ENE,67,3.0,15.0,27,0.00,,,0.00,WUHU21623XXSP,2013-04-22 17:12:00,
2013-04-22 13:17:00,55.6,24.4,30.65,WNW,292,3.2,15.0,30,0.00,,,0.00,WUHU21623XXSP,2013-04-22 17:17:00,
2013-04-22 13:22:00,55.4,23.4,30.64,NE,45,0.5,12.6,29,0.00,,,0.00,WUHU21623XXSP,2013-04-22 17:22:00,
2013-04-22 13:27:00,55.8,24.6,30.65,WSW,247,6.7,13.9,30,0.00,,,0.00,WUHU21623XXSP,2013-04-22 17:27:00,
2013-04-22 13:31:00,55.6,23.6,30.65,NNW,337,7.4,13.9,29,0.00,,,0.00,WUHU21623XXSP,2013-04-22 17:31:00,
2013-04-22 13:36:00,55.6,24.4,30.64,East,90,5.7,15.8,30,0.00,,,0.00,WUHU21623XXSP,2013-04-22 17:36:00,
2013-04-22 13:41:00,55.6,24.4,30.64,WNW,292,5.0,15.8,30,0.00,,,0.00,WUHU21623XXSP,2013-04-22 17:41:00,
2013-04-22 13:47:00,54.5,22.7,30.64,WSW,247,0.6,12.2,29,0.00,,,0.00,WUHU21623XXSP,2013-04-22 17:47:00,
2013-04-22 13:52:00,54.1,21.5,30.65,ENE,67,0.0,11.2,28,0.00,,,0.00,WUHU21623XXSP,2013-04-22 17:52:00,
2013-04-22 13:57:00,54.3,20.8,30.65,NW,315,4.7,12.8,27,0.00,,,0.00,WUHU21623XXSP,2013-04-22 17:57:00,
2013-04-22 14:02:00,55.2,21.6,30.65,NW,315,5.1,21.1,27,0.00,,,0.00,WUHU21623XXSP,2013-04-22 18:02:00,
2013-04-22 14:07:00,56.1,21.5,30.65,NW,315,7.3,21.1,26,0.00,,,0.00,WUHU21623XXSP,2013-04-22 18:07:00,
2013-04-22 14:12:00,56.5,20.9,30.64,ENE,67,7.2,10.4,25,0.00,,,0.00,WUHU21623XXSP,2013-04-22 18:12:00,
2013-04-22 14:17:00,56.8,18.2,30.64,NE,45,4.9,14.8,22,0.00,,,0.00,WUHU21623XXSP,2013-04-22 18:17:00,
2013-04-22 14:22:00,56.8,17.2,30.64,NE,45,6.2,15.5,21,0.00,,,0.00,WUHU21623XXSP,2013-04-22 18:22:00,
2013-04-22 14:27:00,57.0,17.3,30.64,ESE,112,7.1,15.5,21,0.00,,,0.00,WUHU21623XXSP,2013-04-22 18:27:00,
2013-04-22 14:32:00,57.2,17.5,30.64,ENE,67,2.5,15.4,21,0.00,,,0.00,WUHU21623XXSP,2013-04-22 18:32:00,
2013-04-22 14:37:00,57.7,19.0,30.64,ENE,67,5.6,13.6,22,0.00,,,0.00,WUHU21623XXSP,2013-04-22 18:37:00,
2013-04-22 14:42:00,57.9,17.0,30.63,NNE,22,4.6,14.4,20,0.00,,,0.00,WUHU21623XXSP,2013-04-22 18:42:00,
2013-04-22 14:47:00,57.7,16.8,30.62,WSW,247,8.4,17.5,20,0.00,,,0.00,WUHU21623XXSP,2013-04-22 18:47:00,
2013-04-22 14:52:00,57.6,16.7,30.61,East,90,5.0,17.5,20,0.00,,,0.00,WUHU21623XXSP,2013-04-22 18:52:00,
2013-04-22 14:57:00,57.9,17.0,30.61,NE,45,0.7,14.7,20,0.00,,,0.00,WUHU21623XXSP,2013-04-22 18:57:00,
2013-04-22 15:02:00,58.3,17.3,30.61,NNW,337,1.4,10.7,20,0.00,,,0.00,WUHU21623XXSP,2013-04-22 19:02:00,
2013-04-22 15:07:00,57.7,16.8,30.61,NNE,22,0.7,13.1,20,0.00,,,0.00,WUHU21623XXSP,2013-04-22 19:07:00,
2013-04-22 15:12:00,57.4,16.6,30.61,WNW,292,6.1,13.1,20,0.00,,,0.00,WUHU21623XXSP,2013-04-22 19:12:00,
2013-04-22 15:17:00,57.6,17.8,30.61,East,90,3.4,9.6,21,0.00,,,0.00,WUHU21623XXSP,2013-04-22 19:17:00,
2013-04-22 15:22:00,57.4,16.6,30.61,NNE,22,7.6,13.8,20,0.00,,,0.00,WUHU21623XXSP,2013-04-22 19:22:00,
2013-04-22 15:27:00,57.6,16.7,30.60,NE,45,4.4,14.0,20,0.00,,,0.00,WUHU21623XXSP,2013-04-22 19:27:00,
2013-04-22 15:32:00,58.1,17.1,30.61,ENE,67,3.3,14.0,20,0.00,,,0.00,WUHU21623XXSP,2013-04-22 19:32:00,
2013-04-22 15:37:00,58.1,17.1,30.60,ENE,67,0.0,12.4,20,0.00,,,0.00,WUHU21623XXSP,2013-04-22 19:37:00,
2013-04-22 15:42:00,58.3,17.3,30.60,NE,45,6.9,12.4,20,0.00,,,0.00,WUHU21623XXSP,2013-04-22 19:42:00,
2013-04-22 15:47:00,58.5,17.5,30.60,NE,45,7.0,12.3,20,0.00,,,0.00,WUHU21623XXSP,2013-04-22 19:47:00,
2013-04-22 15:52:00,58.5,17.5,30.60,NE,45,5.9,14.5,20,0.00,,,0.00,WUHU21623XXSP,2013-04-22 19:52:00,
2013-04-22 15:57:00,58.8,17.7,30.60,WNW,292,0.0,15.7,20,0.00,,,0.00,WUHU21623XXSP,2013-04-22 19:57:00,
2013-04-22 16:02:00,59.4,18.2,30.59,ESE,112,5.2,15.7,20,0.00,,,0.00,WUHU21623XXSP,2013-04-22 20:02:00,
2013-04-22 16:07:00,58.6,17.6,30.59,ENE,67,9.2,15.0,20,0.00,,,0.00,WUHU21623XXSP,2013-04-22 20:07:00,
2013-04-22 16:12:00,58.6,17.6,30.59,ESE,112,7.2,15.0,20,0.00,,,0.00,WUHU21623XXSP,2013-04-22 20:12:00,
2013-04-22 16:17:00,58.1,17.1,30.59,North,0,0.0,14.9,20,0.00,,,0.00,WUHU21623XXSP,2013-04-22 20:17:00,
2013-04-22 16:22:00,58.3,17.3,30.59,WNW,292,3.8,14.9,20,0.00,,,0.00,WUHU21623XXSP,2013-04-22 20:22:00,
2013-04-22 16:27:00,58.1,17.1,30.59,NE,45,6.2,9.4,20,0.00,,,0.00,WUHU21623XXSP,2013-04-22 20:27:00,
2013-04-22 16:32:00,57.9,17.0,30.59,NE,45,5.8,12.5,20,0.00,,,0.00,WUHU21623XXSP,2013-04-22 20:32:00,
2013-04-22 16:37:00,57.4,16.6,30.59,NNW,337,4.9,12.9,20,0.00,,,0.00,WUHU21623XXSP,2013-04-22 20:37:00,
2013-04-22 16:42:00,57.4,16.6,30.59,WNW,292,7.8,13.5,20,0.00,,,0.00,WUHU21623XXSP,2013-04-22 20:42:00,
2013-04-22 16:47:00,56.8,16.1,30.59,WSW,247,3.5,13.5,20,0.00,,,0.00,WUHU21623XXSP,2013-04-22 20:47:00,
2013-04-22 16:52:00,56.8,16.1,30.59,ENE,67,6.3,12.7,20,0.00,,,0.00,WUHU21623XXSP,2013-04-22 20:52:00,
2013-04-22 16:57:00,56.8,16.1,30.59,NW,315,6.5,12.7,20,0.00,,,0.00,WUHU21623XXSP,2013-04-22 20:57:00,
2013-04-22 17:02:00,56.5,15.8,30.59,ENE,67,3.9,12.4,20,0.00,,,0.00,WUHU21623XXSP,2013-04-22 21:02:00,
2013-04-22 17:07:00,56.1,15.5,30.59,ENE,67,8.1,16.7,20,0.00,,,0.00,WUHU21623XXSP,2013-04-22 21:07:00,
2013-04-22 17:12:00,55.9,15.3,30.59,NE,45,5.7,16.7,20,0.00,,,0.00,WUHU21623XXSP,2013-04-22 21:12:00,
2013-04-22 17:17:00,56.1,15.5,30.59,NE,45,7.4,15.7,20,0.00,,,0.00,WUHU21623XXSP,2013-04-22 21:17:00,
2013-04-22 17:22:00,55.8,15.2,30.59,ENE,67,4.7,14.4,20,0.00,,,0.00,WUHU21623XXSP,2013-04-22 21:22:00,
2013-04-22 17:27:00,55.6,15.1,30.59,NE,45,3.9,14.4,20,0.00,,,0.00,WUHU21623XXSP,2013-04-22 21:27:00,
2013-04-22 17:32:00,55.0,14.6,30.59,NE,45,5.7,9.5,20,0.00,,,0.00,WUHU21623XXSP,2013-04-22 21:32:00,
2013-04-22 17:37:00,55.0,14.6,30.59,ENE,67,10.0,12.8,20,0.00,,,0.00,WUHU21623XXSP,2013-04-22 21:37:00,
2013-04-22 17:42:00,55.0,14.6,30.59,NNW,337,7.3,13.7,20,0.00,,,0.00,WUHU21623XXSP,2013-04-22 21:42:00,
2013-04-22 17:47:00,54.9,14.5,30.59,North,0,5.0,14.6,20,0.00,,,0.00,WUHU21623XXSP,2013-04-22 21:47:00,
2013-04-22 17:52:00,54.9,14.5,30.59,ENE,67,2.9,14.8,20,0.00,,,0.00,WUHU21623XXSP,2013-04-22 21:52:00,
2013-04-22 17:57:00,54.5,14.2,30.59,NE,45,1.7,20.0,20,0.00,,,0.00,WUHU21623XXSP,2013-04-22 21:57:00,
2013-04-22 18:02:00,54.5,14.2,30.59,NE,45,6.3,20.0,20,0.00,,,0.00,WUHU21623XXSP,2013-04-22 22:02:00,
2013-04-22 18:07:00,53.8,13.6,30.59,NNE,22,0.8,17.3,20,0.00,,,0.00,WUHU21623XXSP,2013-04-22 22:07:00,
2013-04-22 18:12:00,54.0,13.7,30.59,NE,45,9.4,12.8,20,0.00,,,0.00,WUHU21623XXSP,2013-04-22 22:12:00,
2013-04-22 18:17:00,53.6,13.4,30.59,NE,45,3.3,14.1,20,0.00,,,0.00,WUHU21623XXSP,2013-04-22 22:17:00,
2013-04-22 18:22:00,53.4,13.2,30.59,NE,45,1.3,14.1,20,0.00,,,0.00,WUHU21623XXSP,2013-04-22 22:22:00,
2013-04-22 18:27:00,53.2,13.1,30.59,ENE,67,4.7,9.1,20,0.00,,,0.00,WUHU21623XXSP,2013-04-22 22:27:00,
2013-04-22 18:32:00,53.1,13.0,30.59,ENE,67,4.6,10.5,20,0.00,,,0.00,WUHU21623XXSP,2013-04-22 22:32:00,
2013-04-22 18:37:00,52.2,12.2,30.59,ENE,67,2.9,15.9,20,0.00,,,0.00,WUHU21623XXSP,2013-04-22 22:37:00,
2013-04-22 18:42:00,51.4,11.6,30.59,NE,45,3.1,15.9,20,0.00,,,0.00,WUHU21623XXSP,2013-04-22 22:42:00,
2013-04-22 18:47:00,50.7,11.0,30.59,NNE,22,0.0,11.5,20,0.00,,,0.00,WUHU21623XXSP,2013-04-22 22:47:00,
2013-04-22 18:52:00,50.4,10.7,30.59,NE,45,2.7,13.3,20,0.00,,,0.00,WUHU21623XXSP,2013-04-22 22:52:00,
2013-04-22 18:57:00,50.2,10.6,30.59,NE,45,5.2,13.3,20,0.00,,,0.00,WUHU21623XXSP,2013-04-22 22:57:00,
2013-04-22 19:02:00,49.1,9.7,30.59,North,0,5.6,15.4,20,0.00,,,0.00,WUHU21623XXSP,2013-04-22 23:02:00,
2013-04-22 19:07:00,48.7,9.3,30.60,NE,45,2.9,15.4,20,0.00,,,0.00,WUHU21623XXSP,2013-04-22 23:07:00,
2013-04-22 19:12:00,48.0,8.7,30.60,NNE,22,0.0,10.3,20,0.00,,,0.00,WUHU21623XXSP,2013-04-22 23:12:00,
2013-04-22 19:17:00,47.5,8.3,30.60,NE,45,0.0,10.3,20,0.00,,,0.00,WUHU21623XXSP,2013-04-22 23:17:00,
2013-04-22 19:22:00,47.1,8.0,30.60,NE,45,0.0,10.1,20,0.00,,,0.00,WUHU21623XXSP,2013-04-22 23:22:00,
2013-04-22 19:27:00,46.8,7.7,30.60,NNW,337,4.3,10.1,20,0.00,,,0.00,WUHU21623XXSP,2013-04-22 23:27:00,
2013-04-22 19:32:00,46.0,7.1,30.61,ENE,67,0.0,11.4,20,0.00,,,0.00,WUHU21623XXSP,2013-04-22 23:32:00,
2013-04-22 19:37:00,45.9,7.0,30.61,ENE,67,0.0,11.4,20,0.00,,,0.00,WUHU21623XXSP,2013-04-22 23:37:00,
2013-04-22 19:42:00,45.5,6.7,30.61,NNE,22,3.3,10.3,20,0.00,,,0.00,WUHU21623XXSP,2013-04-22 23:42:00,
2013-04-22 19:47:00,45.0,6.2,30.61,NE,45,0.4,10.3,20,0.00,,,0.00,WUHU21623XXSP,2013-04-22 23:47:00,
2013-04-22 19:52:00,44.6,5.9,30.61,NE,45,0.0,6.5,20,0.00,,,0.00,WUHU21623XXSP,2013-04-22 23:52:00,
2013-04-22 19:57:00,44.2,5.6,30.61,WNW,292,1.8,6.5,20,0.00,,,0.00,WUHU21623XXSP,2013-04-22 23:57:00,
2013-04-22 20:02:00,43.7,11.7,30.62,NE,45,0.0,6.1,27,0.00,,,0.00,WUHU21623XXSP,2013-04-23 00:02:00,
2013-04-22 20:07:00,43.3,12.9,30.61,NE,45,0.0,6.1,29,0.00,,,0.00,WUHU21623XXSP,2013-04-23 00:07:00,
2013-04-22 20:12:00,43.0,15.6,30.62,ESE,112,3.3,8.8,33,0.00,,,0.00,WUHU21623XXSP,2013-04-23 00:12:00,
2013-04-22 20:17:00,42.8,17.4,30.62,NE,45,0.0,8.8,36,0.00,,,0.00,WUHU21623XXSP,2013-04-23 00:17:00,
2013-04-22 20:22:00,42.3,18.3,30.62,NE,45,0.0,8.6,38,0.00,,,0.00,WUHU21623XXSP,2013-04-23 00:22:00,
2013-04-22 20:27:00,42.1,18.7,30.63,NE,45,0.0,5.4,39,0.00,,,0.00,WUHU21623XXSP,2013-04-23 00:27:00,
2013-04-22 20:32:00,41.9,18.5,30.62,NE,45,0.0,5.4,39,0.00,,,0.00,WUHU21623XXSP,2013-04-23 00:32:00,
2013-04-22 20:37:00,41.5,19.4,30.63,NE,45,0.0,5.9,41,0.00,,,0.00,WUHU21623XXSP,2013-04-23 00:37:00,
2013-04-22 20:42:00,41.4,19.8,30.63,NNW,337,0.0,5.9,42,0.00,,,0.00,WUHU21623XXSP,2013-04-23 00:42:00,
2013-04-22 20:47:00,41.2,20.2,30.63,North,0,0.0,5.3,43,0.00,,,0.00,WUHU21623XXSP,2013-04-23 00:47:00,
2013-04-22 20:52:00,40.6,20.2,30.63,ENE,67,1.5,6.1,44,0.00,,,0.00,WUHU21623XXSP,2013-04-23 00:52:00,
2013-04-22 20:57:00,40.5,20.7,30.63,NE,45,0.0,8.2,45,0.00,,,0.00,WUHU21623XXSP,2013-04-23 00:57:00,
2013-04-22 21:02:00,40.3,21.0,30.63,NW,315,0.0,8.2,46,0.00,,,0.00,WUHU21623XXSP,2013-04-23 01:02:00,
2013-04-22 21:07:00,40.1,20.9,30.63,SW,225,0.0,5.5,46,0.00,,,0.00,WUHU21623XXSP,2013-04-23 01:07:00,
2013-04-22 21:12:00,39.9,21.2,30.63,ENE,67,1.4,4.7,47,0.00,,,0.00,WUHU21623XXSP,2013-04-23 01:12:00,
2013-04-22 21:17:00,39.7,21.0,30.63,ENE,67,0.0,4.7,47,0.00,,,0.00,WUHU21623XXSP,2013-04-23 01:17:00,
2013-04-22 21:22:00,39.6,21.4,30.63,NE,45,0.0,1.8,48,0.00,,,0.00,WUHU21623XXSP,2013-04-23 01:22:00,
2013-04-22 21:27:00,39.0,20.9,30.63,ENE,67,0.0,1.8,48,0.00,,,0.00,WUHU21623XXSP,2013-04-23 01:27:00,
2013-04-22 21:32:00,38.7,21.1,30.63,ENE,67,0.0,0.9,49,0.00,,,0.00,WUHU21623XXSP,2013-04-23 01:32:00,
2013-04-22 21:37:00,38.3,21.2,30.63,ENE,67,0.0,1.6,50,0.00,,,0.00,WUHU21623XXSP,2013-04-23 01:37:00,
2013-04-22 21:42:00,37.9,20.9,30.63,ENE,67,0.0,1.6,50,0.00,,,0.00,WUHU21623XXSP,2013-04-23 01:42:00,
2013-04-22 21:47:00,37.8,21.2,30.63,ENE,67,0.0,1.0,51,0.00,,,0.00,WUHU21623XXSP,2013-04-23 01:47:00,
2013-04-22 21:52:00,37.6,21.5,30.63,ENE,67,1.5,1.9,52,0.00,,,0.00,WUHU21623XXSP,2013-04-23 01:52:00,
2013-04-22 21:57:00,37.6,21.5,30.62,ENE,67,0.0,2.6,52,0.00,,,0.00,WUHU21623XXSP,2013-04-23 01:57:00,
2013-04-22 22:02:00,37.6,22.0,30.62,ENE,67,0.0,2.6,53,0.00,,,0.00,WUHU21623XXSP,2013-04-23 02:02:00,
2013-04-22 22:07:00,37.0,21.4,30.62,ENE,67,0.0,0.0,53,0.00,,,0.00,WUHU21623XXSP,2013-04-23 02:07:00,
2013-04-22 22:12:00,36.7,21.2,30.62,ENE,67,0.0,0.0,53,0.00,,,0.00,WUHU21623XXSP,2013-04-23 02:12:00,
2013-04-22 22:17:00,36.3,21.2,30.62,ENE,67,0.0,0.0,54,0.00,,,0.00,WUHU21623XXSP,2013-04-23 02:17:00,
2013-04-22 22:22:00,36.1,21.0,30.62,ENE,67,0.0,0.0,54,0.00,,,0.00,WUHU21623XXSP,2013-04-23 02:22:00,
2013-04-22 22:27:00,35.8,21.2,30.62,ENE,67,0.0,0.0,55,0.00,,,0.00,WUHU21623XXSP,2013-04-23 02:27:00,
2013-04-22 22:32:00,35.4,20.8,30.62,ENE,67,0.0,0.0,55,0.00,,,0.00,WUHU21623XXSP,2013-04-23 02:32:00,
2013-04-22 22:37:00,35.2,21.1,30.61,ENE,67,0.0,0.0,56,0.00,,,0.00,WUHU21623XXSP,2013-04-23 02:37:00,
2013-04-22 22:42:00,35.1,21.0,30.61,ENE,67,0.0,0.0,56,0.00,,,0.00,WUHU21623XXSP,2013-04-23 02:42:00,
2013-04-22 22:47:00,34.7,20.6,30.61,ENE,67,0.0,0.0,56,0.00,,,0.00,WUHU21623XXSP,2013-04-23 02:47:00,
2013-04-22 22:52:00,34.5,20.9,30.61,ENE,67,0.0,0.0,57,0.00,,,0.00,WUHU21623XXSP,2013-04-23 02:52:00,
2013-04-22 22:57:00,34.2,20.6,30.61,ENE,67,0.0,0.0,57,0.00,,,0.00,WUHU21623XXSP,2013-04-23 02:57:00,
2013-04-22 23:02:00,34.0,20.4,30.60,ENE,67,0.0,0.0,57,0.00,,,0.00,WUHU21623XXSP,2013-04-23 03:02:00,
2013-04-22 23:07:00,34.0,20.8,30.61,ENE,67,0.0,0.0,58,0.00,,,0.00,WUHU21623XXSP,2013-04-23 03:07:00,
2013-04-22 23:12:00,33.6,20.8,30.60,ENE,67,0.0,0.0,59,0.00,,,0.00,WUHU21623XXSP,2013-04-23 03:12:00,
2013-04-22 23:17:00,33.4,20.6,30.60,ENE,67,0.0,0.0,59,0.00,,,0.00,WUHU21623XXSP,2013-04-23 03:17:00,
2013-04-22 23:22:00,33.3,20.6,30.60,ENE,67,0.0,0.0,59,0.00,,,0.00,WUHU21623XXSP,2013-04-23 03:22:00,
2013-04-22 23:27:00,33.1,20.8,30.60,ENE,67,0.0,0.0,60,0.00,,,0.00,WUHU21623XXSP,2013-04-23 03:27:00,
2013-04-22 23:32:00,32.9,20.6,30.60,ENE,67,0.0,0.0,60,0.00,,,0.00,WUHU21623XXSP,2013-04-23 03:32:00,
2013-04-22 23:37:00,32.7,20.4,30.60,ENE,67,0.0,0.0,60,0.00,,,0.00,WUHU21623XXSP,2013-04-23 03:37:00,
2013-04-22 23:42:00,32.5,20.6,30.60,ENE,67,0.0,0.0,61,0.00,,,0.00,WUHU21623XXSP,2013-04-23 03:42:00,
2013-04-22 23:47:00,32.4,20.5,30.60,ENE,67,0.0,0.0,61,0.00,,,0.00,WUHU21623XXSP,2013-04-23 03:47:00,
2013-04-22 23:52:00,32.2,20.3,30.59,ENE,67,0.0,0.0,61,0.00,,,0.00,WUHU21623XXSP,2013-04-23 03:52:00,
2013-04-22 23:57:00,31.8,19.9,30.59,ENE,67,0.0,0.0,61,0.00,,,0.00,WUHU21623XXSP,2013-04-23 03:57:00,